Clallam Bay, WA

7:38 AM PDT on August 29, 2016 (GMT -0700)
Lake Ozette | | Change Station

Elev 125 ft 48.15 °N, 124.66 °W | Updated 5 days ago

Mostly Cloudy
Mostly Cloudy
60 °F
Feels Like 60 °F
N
5
Wind Variable Wind from SSE
Gusts mph

Today
High -- | Low -- °F
--% Chance of Precip.
Yesterday
High -- | Low -- °F
Precip. -- in
Pressure 30.06 in
Visibility 10.0 miles
Clouds Mostly Cloudy 6000 ft
Dew Point 55 °F
Humidity 85%
Rainfall in
Snow Depth Not available.
6:33 AM 8:04 PM
Waning Crescent, 8% visible
METAR KUIL 291353Z AUTO 09005KT 10SM BKN060 12/11 A3005 RMK AO2 SLP177 T01170111
Pressure 30.06 in
Visibility 10.0 miles
Clouds Mostly Cloudy 6000 ft
Dew Point 55 °F
Humidity 85%
Rainfall in
Snow Depth Not available.
6:33 AM 8:04 PM
Waning Crescent, 8% visible
METAR KUIL 291353Z AUTO 09005KT 10SM BKN060 12/11 A3005 RMK AO2 SLP177 T01170111

10-Day Weather Forecast

Almanac

Astronomy

Aug. 29, 2016 Rise Set
Actual Time
Civil Twilight
Nautical Twilight
Astronomical Twilight
Moon
Length of Visible Light
Length of Day
Tomorrow will be .
, % of the Moon is Illuminated

Today's Extremes

State Highs State Lows

Community

WunderPhotos

Upload Photos

1,935,830 photos uploaded!

WunderBlog® & News

Nearby

Air Quality

  Air Quality AQ Index Pollutant
Not available.

Snow Depth

Station Depth Elevation

Earthquake Activity

City Distance Mag. Time & Date
Minimum magnitude displayed is 2.5.

Coastal Water Temperatures

Place Temperature

Stations

Nearby Weather Stations

Station Location Temp. Windchill Dew Point Humidity Wind Precip. Elev Updated Type
                   

Watches & Warnings

There are currently no watches in effect.